Time;durP1;ratioP1;P1;durP2;ratioP2;P2;SDS_P1;SDS_P2;PMS_P1;PMS_P2;Temp;Humidity;BMP_temperature;BMP_pressure;BME280_temperature;BME280_humidity;BME280_pressure;Samples;Min_cycle;Max_cycle;Signal;HPM_P1;HPM_P2
2023/01/26 00:01:21;;;;;;;9.18;5.60;;;2.50;99.90;;;2.20;92.40;101397.41;4948784;29;20201;-65
2023/01/26 00:03:49;;;;;;;10.00;5.65;;;2.50;99.90;;;2.21;92.57;101387.94;4934837;29;20213;-67
2023/01/26 00:06:18;;;;;;;11.77;6.57;;;2.50;99.90;;;2.21;92.81;101387.94;4961908;28;20222;-66
2023/01/26 00:08:49;;;;;;;8.95;5.43;;;2.50;99.90;;;2.20;92.94;101393.97;4944495;28;20220;-68
2023/01/26 00:11:25;;;;;;;10.07;5.93;;;2.50;99.90;;;2.19;92.78;101392.28;4972292;28;20203;-67
2023/01/26 00:13:53;;;;;;;8.95;5.60;;;2.50;99.90;;;2.19;92.71;101390.53;4971066;28;20216;-67
2023/01/26 00:16:20;;;;;;;14.45;7.07;;;2.50;99.90;;;2.20;92.28;101381.09;4973104;28;20212;-67
2023/01/26 00:18:47;;;;;;;5.22;3.72;;;2.50;99.90;;;2.16;92.21;101387.22;4954677;28;20196;-69
2023/01/26 00:21:17;;;;;;;8.02;5.50;;;2.50;99.90;;;2.12;92.54;101383.03;4952614;28;20624;-66
2023/01/26 00:23:45;;;;;;;12.27;4.78;;;2.40;99.90;;;2.12;92.66;101367.59;4960259;28;20220;-67
2023/01/26 00:26:19;;;;;;;2.90;2.13;;;2.40;99.90;;;2.08;92.39;101377.13;4940693;28;20645;-67
2023/01/26 00:28:46;;;;;;;9.35;5.07;;;2.40;99.90;;;2.06;92.77;101376.31;4948724;29;20219;-69
2023/01/26 00:31:26;;;;;;;11.07;5.47;;;2.40;99.90;;;2.04;92.79;101369.50;4936334;28;20197;-66
2023/01/26 00:33:54;;;;;;;7.28;3.42;;;2.40;99.90;;;2.01;93.08;101369.56;4942115;28;20205;-66
2023/01/26 00:36:22;;;;;;;8.73;4.30;;;2.40;99.90;;;1.99;93.34;101367.06;4921959;29;21709;-66
2023/01/26 00:38:49;;;;;;;11.23;3.55;;;2.30;99.90;;;1.98;92.93;101355.06;4955272;28;20226;-66
2023/01/26 00:44:01;;;;;;;4.18;3.13;;;2.30;99.90;;;1.95;93.37;101357.72;5005510;28;20289;-67
2023/01/26 00:46:28;;;;;;;9.45;4.55;;;2.30;99.90;;;1.96;93.19;101353.44;5008163;28;20226;-69
2023/01/26 00:48:55;;;;;;;8.93;4.90;;;2.30;99.90;;;1.95;93.33;101356.88;4991647;28;20731;-66
2023/01/26 00:51:22;;;;;;;6.05;3.35;;;2.30;99.90;;;1.95;93.63;101355.16;5003531;28;20203;-71
2023/01/26 00:53:49;;;;;;;9.20;3.88;;;2.20;99.90;;;1.93;93.58;101350.91;4996501;28;20672;-67
2023/01/26 00:56:16;;;;;;;8.27;4.72;;;2.30;99.90;;;1.91;93.51;101350.09;4994070;28;20224;-65
2023/01/26 00:58:44;;;;;;;9.45;5.20;;;2.30;99.90;;;1.87;93.43;101351.06;4999230;28;20245;-67
2023/01/26 01:01:11;;;;;;;10.75;4.95;;;2.20;99.90;;;1.84;92.94;101346.00;4998320;28;20203;-66
2023/01/26 01:03:38;;;;;;;9.30;5.78;;;2.20;99.90;;;1.82;93.29;101348.59;5004786;28;20230;-66
2023/01/26 01:06:05;;;;;;;12.43;6.10;;;2.10;99.90;;;1.78;93.06;101347.00;4991662;28;20203;-65
2023/01/26 01:08:32;;;;;;;12.85;6.18;;;2.10;99.90;;;1.76;93.63;101342.78;5003085;28;20195;-66
2023/01/26 01:11:08;;;;;;;11.23;6.53;;;2.10;99.90;;;1.78;93.54;101346.16;4996786;28;20208;-67
2023/01/26 01:13:34;;;;;;;12.23;6.57;;;2.10;99.90;;;1.77;93.71;101344.47;5014492;28;20195;-68
2023/01/26 01:16:14;;;;;;;12.10;7.00;;;2.10;99.90;;;1.77;93.56;101339.31;5008775;28;20273;-66
2023/01/26 01:18:42;;;;;;;13.73;6.47;;;2.10;99.90;;;1.78;93.70;101344.44;5004525;28;20618;-67
2023/01/26 01:21:13;;;;;;;13.38;6.50;;;2.10;99.90;;;1.76;93.78;101348.78;5011680;28;20626;-67
2023/01/26 01:23:41;;;;;;;15.27;7.90;;;2.10;99.90;;;1.74;93.88;101335.09;5001613;28;20218;-66
2023/01/26 01:26:09;;;;;;;11.93;7.18;;;2.10;99.90;;;1.76;93.98;101335.06;5010055;28;20206;-66
2023/01/26 01:28:36;;;;;;;15.50;8.60;;;2.10;99.90;;;1.75;94.41;101333.34;4999292;28;20195;-66
2023/01/26 01:31:10;;;;;;;16.67;8.30;;;2.10;99.90;;;1.75;94.56;101335.91;4995546;28;20576;-66
2023/01/26 01:33:37;;;;;;;14.48;6.28;;;2.10;99.90;;;1.75;94.34;101335.91;5008235;28;20234;-66
2023/01/26 01:36:12;;;;;;;14.85;6.80;;;2.10;99.90;;;1.73;93.94;101335.09;5025869;28;20203;-66
2023/01/26 01:38:39;;;;;;;12.07;6.45;;;2.10;99.90;;;1.72;94.45;101341.16;5006237;28;20334;-66
2023/01/26 01:41:07;;;;;;;13.98;7.65;;;2.00;99.90;;;1.73;94.03;101338.53;5038206;28;20623;-66
2023/01/26 01:43:35;;;;;;;12.18;6.80;;;2.00;99.90;;;1.74;94.46;101334.25;5046732;28;20590;-66
2023/01/26 01:46:31;;;;;;;17.08;6.72;;;2.10;99.90;;;1.77;94.03;101336.75;5052127;28;20197;-66
2023/01/26 01:49:03;;;;;;;9.23;5.57;;;2.10;99.90;;;1.79;93.88;101345.28;5046864;28;20197;-66
2023/01/26 01:51:50;;;;;;;11.27;5.93;;;2.10;99.90;;;1.79;94.55;101335.00;5036179;28;20194;-68
2023/01/26 01:54:25;;;;;;;18.85;7.88;;;2.10;99.90;;;1.84;94.32;101335.69;5037999;28;20701;-66
2023/01/26 01:56:57;;;;;;;16.33;6.90;;;2.10;99.90;;;1.84;94.32;101328.81;5042850;28;20220;-67
2023/01/26 01:59:24;;;;;;;13.00;7.15;;;2.20;99.90;;;1.82;94.28;101340.88;5032665;28;20197;-66
2023/01/26 02:01:51;;;;;;;9.70;5.50;;;2.10;99.90;;;1.84;94.18;101336.56;5050320;28;20201;-66
2023/01/26 02:04:21;;;;;;;11.02;6.65;;;2.20;99.90;;;1.89;94.50;101337.28;5039469;28;20308;-66
2023/01/26 02:06:52;;;;;;;13.70;8.27;;;2.20;99.90;;;1.90;93.34;101338.09;5048825;28;20643;-66
2023/01/26 02:12:15;;;;;;;15.65;7.78;;;2.20;99.90;;;1.84;93.10;101335.69;5036977;28;20201;-69
2023/01/26 02:14:42;;;;;;;12.95;7.20;;;2.20;99.90;;;1.75;93.57;101330.78;5034723;28;20209;-69
2023/01/26 02:17:09;;;;;;;13.48;7.93;;;2.10;99.90;;;1.70;93.92;101340.34;5031733;28;20708;-65
2023/01/26 02:20:03;;;;;;;10.60;7.18;;;2.00;99.90;;;1.66;93.98;101325.88;5045270;28;20630;-69
2023/01/26 02:22:43;;;;;;;10.65;6.57;;;2.00;99.90;;;1.67;93.80;101333.53;5033085;28;20303;-68
2023/01/26 02:25:26;;;;;;;12.93;6.40;;;2.00;99.90;;;1.65;93.92;101325.03;5035031;28;20677;-68
2023/01/26 02:27:53;;;;;;;11.32;6.13;;;2.00;99.90;;;1.62;93.99;101319.13;5046593;28;20229;-66
2023/01/26 02:30:22;;;;;;;12.05;5.95;;;1.90;99.90;;;1.60;94.46;101328.59;5031578;28;20198;-66
2023/01/26 02:32:48;;;;;;;7.95;5.25;;;1.90;99.90;;;1.61;94.60;101327.69;5031536;28;20226;-67
2023/01/26 02:35:15;;;;;;;6.90;4.82;;;1.90;99.90;;;1.62;94.76;101319.94;5057771;28;20205;-66
2023/01/26 02:37:42;;;;;;;10.70;5.72;;;1.90;99.90;;;1.63;94.78;101323.38;5043032;28;20226;-70
2023/01/26 02:40:38;;;;;;;10.75;6.75;;;1.90;99.90;;;1.63;94.25;101323.38;5043672;28;20213;-66
2023/01/26 02:43:05;;;;;;;9.93;5.97;;;1.90;99.90;;;1.66;94.43;101319.00;5030322;28;20221;-67
2023/01/26 02:45:33;;;;;;;9.25;5.60;;;2.00;99.90;;;1.67;94.45;101317.25;5004222;28;20202;-65
2023/01/26 02:48:03;;;;;;;11.38;6.05;;;2.00;99.90;;;1.70;93.90;101320.63;5021838;28;20678;-66
2023/01/26 02:50:31;;;;;;;6.55;4.00;;;2.00;99.90;;;1.66;93.90;101315.59;5012555;28;20687;-67
2023/01/26 02:52:58;;;;;;;7.30;3.35;;;2.00;99.90;;;1.62;93.83;101319.94;5011758;28;20587;-66
2023/01/26 02:55:26;;;;;;;5.45;3.97;;;1.90;99.90;;;1.62;94.03;101316.56;5011246;28;20619;-66
2023/01/26 02:57:59;;;;;;;12.57;5.72;;;1.90;99.90;;;1.60;93.93;101306.28;5019137;28;20218;-68
2023/01/26 03:00:30;;;;;;;10.30;5.85;;;2.00;99.90;;;1.59;94.58;101307.16;5030973;28;20198;-66
2023/01/26 03:03:00;;;;;;;9.55;4.95;;;1.90;99.90;;;1.58;94.96;101314.03;5012274;28;20841;-69
2023/01/26 03:05:27;;;;;;;7.28;4.15;;;1.90;99.90;;;1.55;95.02;101311.53;5006180;28;20202;-66
2023/01/26 03:07:54;;;;;;;6.72;3.53;;;1.90;99.90;;;1.54;95.22;101302.13;5021138;28;20225;-66
2023/01/26 03:10:24;;;;;;;6.32;3.00;;;1.90;99.90;;;1.56;95.55;101305.50;5014904;28;20202;-66
2023/01/26 03:12:51;;;;;;;10.20;3.10;;;1.90;99.90;;;1.60;95.72;101308.84;5013356;28;20215;-67
2023/01/26 03:27:25;;;;;;;3.90;3.38;;;1.90;99.90;;;1.67;95.40;101294.09;5029466;28;20702;-66
2023/01/26 03:29:26;;;;;;;2.53;1.95;;;2.10;99.90;;;1.77;94.15;101288.69;5021885;28;20243;-67
2023/01/26 03:31:53;;;;;;;6.97;3.50;;;2.10;99.90;;;1.80;94.13;101280.91;5013449;28;20199;-66
2023/01/26 03:34:20;;;;;;;6.25;3.58;;;2.10;99.90;;;1.79;93.65;101280.97;5025011;28;20203;-67
2023/01/26 03:36:48;;;;;;;7.57;3.45;;;2.10;99.90;;;1.77;93.50;101280.16;5019201;28;20229;-67
2023/01/26 03:56:22;;;;;;;1.45;1.35;;;2.10;99.90;;;1.85;92.50;101249.91;5031028;28;20480;-66
2023/01/26 03:58:55;;;;;;;3.08;2.20;;;2.20;99.90;;;1.88;92.32;101252.38;5029837;28;20210;-67
2023/01/26 04:01:31;;;;;;;2.55;1.65;;;2.20;99.90;;;1.90;92.76;101253.19;5010690;28;20198;-67
2023/01/26 04:09:33;;;;;;;1.67;1.25;;;2.30;99.90;;;1.97;92.44;101254.72;5020800;28;20250;-66
2023/01/26 04:11:59;;;;;;;1.60;1.45;;;2.30;99.90;;;1.92;92.28;101247.13;5012141;28;20194;-66
2023/01/26 04:22:50;;;;;;;1.63;1.52;;;2.20;99.90;;;1.90;92.94;101255.75;5016732;28;20202;-66
2023/01/26 04:25:19;;;;;;;4.68;3.05;;;2.20;99.90;;;1.89;93.02;101249.78;5030377;28;20201;-67
2023/01/26 04:27:46;;;;;;;4.20;2.78;;;2.20;99.90;;;1.88;93.27;101248.09;5022510;28;20753;-68
2023/01/26 04:30:15;;;;;;;4.25;2.80;;;2.20;99.90;;;1.89;93.65;101247.22;5009705;28;20213;-66
2023/01/26 04:32:42;;;;;;;6.00;3.60;;;2.20;99.90;;;1.89;93.80;101247.22;5008458;28;20217;-66
2023/01/26 04:35:09;;;;;;;3.97;3.50;;;2.20;99.90;;;1.90;93.58;101245.47;5027110;28;20670;-66
2023/01/26 04:37:37;;;;;;;5.75;3.67;;;2.20;99.90;;;1.92;93.99;101235.97;5011972;28;20313;-66
2023/01/26 04:40:06;;;;;;;2.45;2.25;;;2.20;99.90;;;1.91;94.15;101234.31;5011379;28;20210;-66
2023/01/26 04:42:34;;;;;;;4.88;3.22;;;2.30;99.90;;;1.92;93.82;101235.97;5016418;28;20205;-65
2023/01/26 04:45:01;;;;;;;6.63;3.67;;;2.20;99.90;;;1.89;94.45;101223.22;5016302;28;20225;-65
2023/01/26 04:47:27;;;;;;;3.85;2.42;;;2.20;99.90;;;1.89;94.08;101224.06;5018167;28;20214;-65
2023/01/26 04:49:55;;;;;;;6.07;3.33;;;2.20;99.90;;;1.86;94.24;101216.41;5028508;28;20237;-69
2023/01/26 04:52:22;;;;;;;4.43;3.10;;;2.20;99.90;;;1.87;94.71;101223.25;5022872;28;20210;-66
2023/01/26 04:54:49;;;;;;;4.07;3.22;;;2.20;99.90;;;1.89;94.84;101220.63;5029375;28;20588;-67
2023/01/26 04:57:19;;;;;;;6.20;3.50;;;2.20;99.90;;;1.90;94.97;101215.44;5033313;28;20600;-67
2023/01/26 04:59:46;;;;;;;2.47;1.95;;;2.20;99.90;;;1.91;94.48;101214.56;5015764;28;20202;-66
2023/01/26 05:02:13;;;;;;;2.72;1.85;;;2.20;99.90;;;1.89;94.71;101211.19;5023981;28;20589;-66
2023/01/26 05:04:40;;;;;;;3.00;2.70;;;2.20;99.90;;;1.89;94.72;101210.34;5015912;28;20721;-66
2023/01/26 05:07:07;;;;;;;3.80;2.83;;;2.20;99.90;;;1.90;95.23;101212.00;5023268;28;20219;-67
2023/01/26 05:09:33;;;;;;;2.75;2.15;;;2.20;99.90;;;1.89;95.03;101211.19;5014998;28;20202;-68
2023/01/26 05:12:32;;;;;;;2.00;1.75;;;2.20;99.90;;;1.88;94.73;101203.50;5015407;28;20203;-66
2023/01/26 05:14:47;;;;;;;5.38;3.40;;;2.20;99.90;;;1.90;95.16;101199.16;5025058;28;20268;-66
2023/01/26 05:17:14;;;;;;;2.83;2.47;;;2.20;99.90;;;1.87;94.79;101197.53;5033245;28;20305;-67
2023/01/26 05:19:41;;;;;;;5.28;2.88;;;2.20;99.90;;;1.84;94.85;101202.75;5030545;28;20681;-63
2023/01/26 05:22:08;;;;;;;4.30;3.30;;;2.20;99.90;;;1.82;95.17;101201.94;5026993;28;20221;-69
2023/01/26 05:24:38;;;;;;;2.33;2.10;;;2.20;99.90;;;1.79;95.04;101198.63;5017481;28;20669;-72
2023/01/26 05:27:20;;;;;;;1.70;1.60;;;2.10;99.90;;;1.79;95.17;101198.63;5031036;28;20248;-66
2023/01/26 05:29:48;;;;;;;2.80;2.40;;;2.10;99.90;;;1.80;95.72;101195.16;5032683;28;20201;-66
2023/01/26 05:32:15;;;;;;;4.30;3.55;;;2.10;99.90;;;1.82;96.06;101208.81;5025805;28;20677;-66
2023/01/26 05:34:42;;;;;;;4.63;3.28;;;2.10;99.90;;;1.80;95.77;101210.59;5017633;28;20229;-65
2023/01/26 05:37:09;;;;;;;3.88;2.75;;;2.10;99.90;;;1.80;95.84;101202.88;5028516;28;20222;-66
2023/01/26 05:39:36;;;;;;;2.40;2.20;;;2.10;99.90;;;1.80;95.71;101202.88;5032792;28;20220;-66
2023/01/26 05:42:03;;;;;;;4.10;2.88;;;2.10;99.90;;;1.80;95.66;101210.59;5021339;28;20218;-66
2023/01/26 05:44:29;;;;;;;3.65;2.78;;;2.10;99.90;;;1.78;95.89;101205.50;5029605;28;20222;-67
2023/01/26 05:46:56;;;;;;;3.42;2.75;;;2.10;99.90;;;1.79;95.58;101208.91;5028512;28;20228;-69
2023/01/26 05:49:23;;;;;;;2.17;2.05;;;2.10;99.90;;;1.76;95.19;101208.97;5026596;28;20259;-66
2023/01/26 05:51:50;;;;;;;1.98;1.85;;;2.10;99.90;;;1.75;95.46;101207.28;5013765;28;20907;-65
2023/01/26 05:54:17;;;;;;;2.85;2.47;;;2.10;99.90;;;1.74;95.25;101205.59;5031891;28;20212;-66
2023/01/26 05:56:44;;;;;;;2.55;2.35;;;2.10;99.90;;;1.72;95.46;101205.66;5032318;28;20226;-66
2023/01/26 05:59:11;;;;;;;2.30;2.10;;;2.10;99.90;;;1.71;95.42;101208.25;5029099;28;20199;-67
2023/01/26 06:01:38;;;;;;;3.20;1.80;;;2.00;99.90;;;1.66;94.74;101208.41;5016737;28;20205;-67
2023/01/26 06:04:05;;;;;;;2.88;2.67;;;2.00;99.90;;;1.62;94.63;101214.47;5015611;28;20230;-68
2023/01/26 06:06:32;;;;;;;2.80;2.60;;;2.00;99.90;;;1.59;94.42;101217.16;5014822;28;20286;-66
2023/01/26 06:08:59;;;;;;;2.55;2.35;;;1.90;99.90;;;1.59;94.16;101222.28;5033104;28;20210;-66
2023/01/26 06:11:26;;;;;;;3.38;2.40;;;1.90;99.90;;;1.55;94.40;101218.94;5029904;28;20198;-66
2023/01/26 06:13:53;;;;;;;4.15;2.78;;;1.90;99.90;;;1.60;94.62;101223.16;5032774;28;20209;-67
2023/01/26 06:16:20;;;;;;;2.85;2.65;;;1.90;99.90;;;1.61;94.62;101229.97;5028727;28;20206;-67
2023/01/26 06:18:48;;;;;;;3.35;3.05;;;1.90;99.90;;;1.59;94.26;101235.16;5025164;28;20238;-70
2023/01/26 06:21:15;;;;;;;3.70;2.85;;;1.90;99.90;;;1.55;94.62;101230.97;5025598;28;20202;-69
2023/01/26 06:23:43;;;;;;;4.80;3.92;;;1.90;99.90;;;1.44;94.66;101236.41;5025093;28;20229;-67
2023/01/26 06:26:10;;;;;;;3.97;3.58;;;1.80;99.90;;;1.43;95.04;101247.53;5011884;28;20195;-68
2023/01/26 06:28:36;;;;;;;4.97;3.80;;;1.80;99.90;;;1.37;95.54;101241.72;5013067;28;20202;-67
2023/01/26 06:31:06;;;;;;;4.43;3.30;;;1.70;99.90;;;1.34;95.58;101252.91;5014412;28;20207;-69
2023/01/26 06:33:35;;;;;;;7.75;3.75;;;1.70;99.90;;;1.33;95.76;101245.25;5031292;28;20202;-66
2023/01/26 06:36:09;;;;;;;4.40;3.97;;;1.70;99.90;;;1.35;95.72;101254.59;5029023;28;20217;-67
2023/01/26 06:38:37;;;;;;;4.50;4.10;;;1.70;99.90;;;1.38;95.71;101248.56;5032086;28;20229;-67
2023/01/26 06:41:06;;;;;;;5.53;3.72;;;1.70;99.90;;;1.44;95.12;101254.41;5028033;28;20210;-66
2023/01/26 06:43:35;;;;;;;3.60;3.15;;;1.80;99.90;;;1.43;94.77;101256.97;5023819;28;20229;-67
2023/01/26 06:46:04;;;;;;;3.20;2.90;;;1.80;99.90;;;1.41;95.07;101249.31;5015142;28;20618;-69
2023/01/26 06:48:33;;;;;;;4.93;3.58;;;1.80;99.90;;;1.39;95.04;101250.22;5001310;28;20575;-68
2023/01/26 06:51:14;;;;;;;6.60;3.55;;;1.70;99.90;;;1.35;95.54;101249.47;5015240;28;20223;-66
2023/01/26 06:53:53;;;;;;;3.88;3.50;;;1.70;99.90;;;1.26;96.17;101249.69;5018909;28;20217;-65
2023/01/26 06:56:22;;;;;;;6.05;4.25;;;1.60;99.90;;;1.27;96.58;101251.38;5011870;28;20203;-68
2023/01/26 06:58:49;;;;;;;4.03;3.60;;;1.60;99.90;;;1.27;96.30;101251.38;4994502;28;20210;-65
2023/01/26 07:01:19;;;;;;;5.13;3.80;;;1.60;99.90;;;1.23;96.68;101244.63;5014775;28;20289;-66
2023/01/26 07:03:48;;;;;;;6.60;4.13;;;1.60;99.90;;;1.17;97.08;101249.06;4999521;28;20226;-67
2023/01/26 07:06:14;;;;;;;3.80;3.45;;;1.50;99.90;;;1.14;97.58;101252.56;5024600;28;20221;-67
2023/01/26 07:08:42;;;;;;;4.20;3.90;;;1.50;99.90;;;1.17;97.71;101260.19;5026841;28;20209;-66
2023/01/26 07:11:10;;;;;;;4.25;3.25;;;1.50;99.90;;;1.19;97.56;101253.28;5024175;28;20269;-66
2023/01/26 07:13:38;;;;;;;3.25;3.05;;;1.50;99.90;;;1.20;96.94;101249.84;5019595;28;20198;-67
2023/01/26 07:16:11;;;;;;;3.25;3.05;;;1.60;99.90;;;1.11;96.06;101250.03;5025006;28;20667;-66
2023/01/26 07:18:38;;;;;;;3.33;2.42;;;1.50;99.90;;;1.11;96.59;101247.47;5020289;28;20638;-66
2023/01/26 07:21:10;;;;;;;2.03;1.90;;;1.40;99.90;;;1.09;96.22;101250.94;5015691;28;20203;-64
2023/01/26 07:23:37;;;;;;;3.22;2.95;;;1.40;99.90;;;1.02;96.29;101250.28;5022708;28;20202;-67
2023/01/26 07:26:04;;;;;;;3.28;2.85;;;1.40;99.90;;;1.04;96.32;101263.09;5020616;28;20207;-64
2023/01/26 07:28:33;;;;;;;2.78;2.55;;;1.40;99.90;;;1.03;96.59;101254.53;5031010;28;20201;-67
2023/01/26 07:31:01;;;;;;;3.58;3.05;;;1.40;99.90;;;1.03;96.12;101259.66;5026263;28;20198;-65
2023/01/26 07:33:29;;;;;;;3.17;2.70;;;1.40;99.90;;;1.04;96.43;101256.22;5013186;28;20287;-65
2023/01/26 07:35:57;;;;;;;3.78;3.33;;;1.40;99.90;;;1.10;95.72;101252.66;5010152;28;20256;-65
2023/01/26 07:38:25;;;;;;;2.60;2.40;;;1.40;99.90;;;1.09;95.73;101259.50;5020898;28;20827;-65
2023/01/26 07:40:52;;;;;;;2.30;2.20;;;1.40;99.90;;;1.12;95.31;101256.03;5022903;28;20218;-65
2023/01/26 07:43:19;;;;;;;1.85;1.75;;;1.50;99.90;;;1.16;95.23;101255.06;5021505;28;20252;-68
2023/01/26 07:45:50;;;;;;;2.70;2.50;;;1.50;99.90;;;1.20;95.51;101259.25;5010730;28;20710;-65
2023/01/26 07:48:22;;;;;;;3.08;2.85;;;1.50;99.90;;;1.20;95.04;101265.25;5020291;28;20218;-65
2023/01/26 07:50:50;;;;;;;1.77;1.30;;;1.50;99.90;;;1.23;95.15;101260.06;5027256;28;20202;-69
2023/01/26 07:53:18;;;;;;;2.83;2.60;;;1.60;99.90;;;1.26;94.52;101269.41;5023307;28;20205;-65
2023/01/26 07:55:46;;;;;;;2.10;2.00;;;1.60;99.90;;;1.28;93.87;101265.91;4997965;28;20211;-66
2023/01/26 07:58:13;;;;;;;2.17;2.08;;;1.60;99.90;;;1.23;93.32;101264.34;5017334;28;20222;-65
2023/01/26 08:00:40;;;;;;;2.33;2.22;;;1.60;99.90;;;1.22;93.40;101263.50;5024695;28;20212;-67
2023/01/26 08:03:07;;;;;;;1.67;1.40;;;1.60;99.90;;;1.23;92.89;101266.91;5029954;28;20198;-65
2023/01/26 08:05:35;;;;;;;2.13;1.90;;;1.60;99.90;;;1.27;92.83;101271.94;5030650;28;20226;-67
2023/01/26 08:08:04;;;;;;;1.95;1.80;;;1.60;99.90;;;1.30;92.19;101264.16;5022073;28;20267;-65
2023/01/26 08:10:31;;;;;;;1.98;1.77;;;1.60;99.90;;;1.35;92.04;101267.47;5018831;28;20617;-66
2023/01/26 08:12:59;;;;;;;2.28;2.17;;;1.70;99.90;;;1.39;91.86;101268.22;5018868;28;20281;-65
2023/01/26 08:15:27;;;;;;;1.90;1.80;;;1.70;99.90;;;1.37;91.26;101268.28;4994569;28;20203;-66
2023/01/26 08:17:54;;;;;;;2.55;2.08;;;1.70;99.90;;;1.40;91.55;101272.50;5012845;28;20222;-65
2023/01/26 08:20:22;;;;;;;1.88;1.77;;;1.70;99.90;;;1.40;91.81;101273.34;5026767;28;20209;-66
2023/01/26 08:22:49;;;;;;;2.00;1.90;;;1.70;99.90;;;1.40;91.68;101270.78;5012482;28;20203;-66
2023/01/26 08:25:16;;;;;;;2.20;2.03;;;1.80;99.90;;;1.39;91.12;101271.66;5016035;28;20312;-69
2023/01/26 08:27:43;;;;;;;1.88;1.77;;;1.70;99.90;;;1.41;90.96;101275.03;5028025;28;20220;-65
2023/01/26 08:30:11;;;;;;;2.25;2.15;;;1.70;99.90;;;1.43;90.70;101274.97;5015428;28;20194;-65
2023/01/26 08:32:39;;;;;;;1.75;1.75;;;1.80;99.90;;;1.41;90.45;101276.75;5024433;28;20225;-65
2023/01/26 08:35:06;;;;;;;2.05;1.95;;;1.70;99.90;;;1.42;89.81;101283.59;5003475;28;20655;-65
2023/01/26 08:37:33;;;;;;;1.85;1.75;;;1.80;99.90;;;1.39;90.00;101287.06;5042630;22;20236;-65
2023/01/26 08:40:00;;;;;;;1.95;1.85;;;1.70;99.90;;;1.40;89.73;101288.78;4988891;28;20198;-66
2023/01/26 08:42:27;;;;;;;3.67;3.05;;;1.70;99.90;;;1.39;89.13;101297.34;5007114;28;20203;-65
2023/01/26 08:44:54;;;;;;;1.70;1.70;;;1.70;99.90;;;1.43;88.84;101287.84;5005597;28;20246;-66
2023/01/26 08:47:21;;;;;;;3.55;3.25;;;1.80;99.90;;;1.46;88.32;101283.47;5008500;28;20217;-65
2023/01/26 08:49:48;;;;;;;3.25;2.95;;;1.80;99.90;;;1.39;87.64;101284.50;5009857;28;20848;-66
2023/01/26 08:52:15;;;;;;;2.05;1.95;;;1.70;99.90;;;1.37;86.61;101285.41;5009533;28;20202;-65
2023/01/26 08:54:42;;;;;;;2.70;2.50;;;1.70;99.90;;;1.30;86.28;101286.47;4999590;28;20597;-67
2023/01/26 08:57:11;;;;;;;2.22;2.13;;;1.70;99.90;;;1.33;86.19;101292.38;5005179;28;20707;-65
2023/01/26 08:59:37;;;;;;;2.45;2.10;;;1.70;99.90;;;1.36;85.74;101282.00;4992806;28;20203;-65
2023/01/26 09:02:05;;;;;;;2.33;2.13;;;1.70;99.90;;;1.38;85.16;101281.97;5011530;28;20207;-65
2023/01/26 09:04:32;;;;;;;2.17;2.08;;;1.70;99.90;;;1.45;85.16;101289.50;5011257;28;20742;-66
2023/01/26 09:06:59;;;;;;;2.35;2.25;;;1.80;99.90;;;1.50;84.76;101290.25;5011185;28;20222;-65
2023/01/26 09:09:26;;;;;;;3.08;2.25;;;1.80;99.90;;;1.55;85.21;101297.84;4995937;28;20290;-65
2023/01/26 09:11:56;;;;;;;3.13;2.85;;;1.90;99.90;;;1.61;84.90;101307.13;4985706;28;20195;-65
2023/01/26 09:14:23;;;;;;;2.28;2.17;;;1.90;99.90;;;1.64;83.84;101301.91;5008851;28;20726;-65
2023/01/26 09:16:50;;;;;;;2.10;2.00;;;2.00;99.90;;;1.69;83.25;101311.19;5006843;28;20218;-65
2023/01/26 09:19:17;;;;;;;2.70;2.60;;;2.00;99.90;;;1.60;82.07;101306.28;4999206;28;20203;-65
2023/01/26 09:21:44;;;;;;;3.03;2.75;;;2.00;99.90;;;1.58;82.24;101303.75;5010307;28;20770;-65
2023/01/26 09:24:11;;;;;;;2.08;1.98;;;1.90;99.90;;;1.60;83.10;101295.16;5009512;28;20195;-66
2023/01/26 09:26:38;;;;;;;2.22;2.13;;;1.90;99.90;;;1.62;83.21;101294.22;4993375;28;20227;-65
2023/01/26 09:29:04;;;;;;;2.45;2.33;;;1.90;99.90;;;1.64;83.20;101297.59;5010662;28;20202;-66
2023/01/26 09:31:31;;;;;;;2.28;2.17;;;1.90;99.90;;;1.65;82.94;101294.16;5013578;28;20203;-66
2023/01/26 09:33:58;;;;;;;2.53;2.33;;;2.00;99.90;;;1.68;83.24;101298.38;5012617;28;20686;-65
2023/01/26 09:36:25;;;;;;;3.20;2.90;;;2.00;99.90;;;1.71;82.78;101303.44;5013729;28;20195;-66
2023/01/26 09:38:52;;;;;;;2.60;2.50;;;2.00;99.90;;;1.74;83.10;101306.78;4998409;28;20247;-65
2023/01/26 09:42:02;;;;;;;3.92;3.53;;;2.10;99.90;;;1.78;83.39;101299.84;5001584;28;20694;-66
2023/01/26 09:44:56;;;;;;;2.00;1.90;;;2.10;99.90;;;1.78;83.66;101300.69;5012128;28;20331;-65
2023/01/26 09:47:54;;;;;;;1.23;0.95;;;2.10;99.90;;;1.87;83.08;101297.03;5007373;28;20963;-65
2023/01/26 09:50:29;;;;;;;3.13;1.92;;;2.20;99.90;;;1.90;83.19;101299.50;5009636;28;20681;-67
2023/01/26 09:53:03;;;;;;;3.20;2.33;;;2.20;99.90;;;1.97;83.12;101303.63;4976671;28;20210;-65
2023/01/26 09:55:30;;;;;;;3.08;2.60;;;2.30;99.90;;;2.01;83.23;101298.34;5014108;28;20207;-65
2023/01/26 09:58:11;;;;;;;2.88;2.67;;;2.40;99.90;;;2.05;83.37;101289.66;5012814;28;20247;-65
2023/01/26 10:00:47;;;;;;;2.20;2.10;;;2.40;99.90;;;2.15;83.50;101290.28;5013401;28;20210;-66
2023/01/26 10:03:40;;;;;;;2.20;2.10;;;2.40;99.90;;;2.21;82.72;101287.53;4988626;28;20206;-66
2023/01/26 10:06:15;;;;;;;1.80;1.45;;;2.50;99.90;;;2.27;82.13;101284.78;4994888;28;20729;-65
2023/01/26 10:08:43;;;;;;;1.70;1.60;;;2.60;99.90;;;2.23;81.75;101285.75;4980106;28;20702;-66
2023/01/26 10:11:28;;;;;;;3.08;2.83;;;2.60;99.90;;;2.27;81.08;101280.50;4979608;28;20207;-66
2023/01/26 10:14:04;;;;;;;1.05;1.05;;;2.60;99.90;;;2.27;80.34;101274.50;4995137;28;20193;-65
2023/01/26 10:16:33;;;;;;;2.00;1.83;;;2.60;99.90;;;2.20;79.68;101273.81;4993756;28;20667;-64
2023/01/26 10:19:11;;;;;;;1.60;1.50;;;2.60;99.90;;;2.15;79.49;101279.97;5011580;28;20390;-65
2023/01/26 10:21:43;;;;;;;1.92;1.80;;;2.50;99.90;;;2.13;78.57;101279.19;4984173;28;20214;-67
2023/01/26 10:24:20;;;;;;;1.85;1.75;;;2.50;99.90;;;2.06;78.70;101275.06;4994999;28;20214;-66
2023/01/26 10:26:50;;;;;;;2.40;2.20;;;2.40;99.90;;;2.00;78.60;101278.63;5012225;28;20281;-65
2023/01/26 10:29:17;;;;;;;1.50;1.40;;;2.40;99.90;;;2.03;78.63;101275.16;4994897;28;20261;-65
2023/01/26 10:31:44;;;;;;;1.80;1.70;;;2.40;99.90;;;2.08;79.16;101273.31;5012302;28;20201;-66
2023/01/26 10:34:24;;;;;;;3.05;2.83;;;2.40;99.90;;;2.13;79.60;101268.88;5011975;28;20206;-65
2023/01/26 10:37:19;;;;;;;4.30;3.90;;;2.40;99.90;;;2.12;79.81;101264.59;5012049;28;20202;-66
2023/01/26 10:40:16;;;;;;;3.75;3.15;;;2.50;99.90;;;2.02;80.53;101268.31;4994190;28;20683;-66
2023/01/26 10:42:57;;;;;;;5.38;4.10;;;2.40;99.90;;;1.96;80.81;101265.91;4994133;28;20210;-66
2023/01/26 10:45:32;;;;;;;5.35;3.90;;;2.30;99.90;;;1.95;81.42;101269.38;5012430;28;20218;-65
2023/01/26 10:48:22;;;;;;;4.78;4.30;;;2.30;99.90;;;1.90;80.88;101260.91;4998127;28;20460;-63
2023/01/26 10:50:50;;;;;;;5.00;4.50;;;2.20;99.90;;;1.85;81.19;101258.47;5011774;28;20284;-66
2023/01/26 10:53:28;;;;;;;3.95;3.20;;;2.20;99.90;;;1.82;81.34;101255.13;4992292;28;20285;-65
2023/01/26 10:55:59;;;;;;;4.03;3.63;;;2.20;99.90;;;1.81;80.84;101251.69;5006716;28;20748;-65
2023/01/26 10:58:56;;;;;;;5.57;4.60;;;2.20;99.90;;;1.70;81.26;101250.31;5011052;28;20222;-65
2023/01/26 11:01:26;;;;;;;3.85;3.55;;;2.10;99.90;;;1.64;81.29;101253.88;5011875;28;20199;-66
2023/01/26 11:04:10;;;;;;;5.18;4.38;;;2.00;99.90;;;1.64;81.98;101245.34;5010973;28;20264;-66
2023/01/26 11:06:38;;;;;;;4.40;3.95;;;2.00;99.90;;;1.63;81.96;101248.78;4996385;28;20222;-65
2023/01/26 11:09:17;;;;;;;4.03;3.40;;;1.90;99.90;;;1.65;81.76;101250.44;5010752;28;20210;-65
2023/01/26 11:11:56;;;;;;;7.07;4.55;;;2.00;99.90;;;1.64;82.05;101246.16;4988871;28;20206;-65
2023/01/26 11:14:23;;;;;;;7.47;5.70;;;2.00;99.90;;;1.65;82.35;101235.00;5003300;28;20199;-66
2023/01/26 11:17:00;;;;;;;4.10;3.70;;;2.00;99.90;;;1.68;82.07;101240.06;5004480;28;20203;-65
2023/01/26 11:19:49;;;;;;;5.15;3.90;;;2.00;99.90;;;1.68;81.54;101240.06;5010230;28;20226;-65
2023/01/26 11:22:31;;;;;;;4.10;3.60;;;2.00;99.90;;;1.74;81.40;101239.06;5010261;28;20205;-65
2023/01/26 11:25:06;;;;;;;4.60;3.67;;;2.10;99.90;;;1.77;81.21;101242.38;4993944;28;20226;-65
2023/01/26 11:27:52;;;;;;;6.30;4.00;;;2.10;99.90;;;1.76;80.36;101235.56;4993418;28;20242;-66